High Shoals, North Carolina
Current Conditions -  °F | °C
As of 3:15 AM on Friday 24 Oct 2014 (Local Time) from KIPJ Reporting Station
Clear Clear  
Wind Chill: 40°   Ceiling: Unl
Heat Index: 40°   Visibility: 10mi
Dew Point: 39°   Wind: 0mph
Humidity: 98%   Direction: NA
Pressure: 30.05"   Gusts: NA
Location:  35.4°N, 81.2°W
Report Text: KIPJ 240715Z AUTO 00000KT 10SM CLR 04/04 A3005 RMK AO2 T00420039
Loading
Personal Weather Stations






























Interactive Weather Map
Tropical Storm Tracking
New forecast layout! Learn more

10-Day Weather Forecast

Advertisements
Track Severe Weather on mobile